Time;durP1;ratioP1;P1;durP2;ratioP2;P2;SDS_P1;SDS_P2;PMS_P1;PMS_P2;Temp;Humidity;BMP_temperature;BMP_pressure;BME280_temperature;BME280_humidity;BME280_pressure;Samples;Min_cycle;Max_cycle;Signal;HPM_P1;HPM_P2
2022/07/20 00:01:43;;;;;;;12.52;7.18;;;20.60;85.00;;;;;;5072680;28;20259;-76
2022/07/20 00:04:10;;;;;;;9.38;6.15;;;20.60;87.10;;;;;;5072881;28;20197;-76
2022/07/20 00:06:37;;;;;;;15.63;6.40;;;20.40;88.60;;;;;;5072942;28;20201;-76
2022/07/20 00:11:48;;;;;;;9.00;6.22;;;20.40;89.70;;;;;;5072754;28;20666;-76
2022/07/20 00:14:15;;;;;;;11.90;6.90;;;20.30;90.60;;;;;;5072617;28;20231;-76
2022/07/20 00:16:42;;;;;;;9.93;6.57;;;20.30;91.20;;;;;;5072831;28;20243;-76
2022/07/20 00:19:10;;;;;;;16.85;8.80;;;20.30;92.90;;;;;;5072706;28;20209;-76
2022/07/20 00:21:36;;;;;;;14.15;8.13;;;20.30;93.40;;;;;;5072598;28;20660;-77
2022/07/20 00:24:03;;;;;;;13.55;7.90;;;20.20;93.20;;;;;;5074156;28;20656;-76
2022/07/20 00:26:30;;;;;;;12.85;8.35;;;20.00;94.20;;;;;;5076666;28;20193;-76
2022/07/20 00:28:56;;;;;;;13.98;8.02;;;20.00;95.20;;;;;;5076781;28;20278;-76
2022/07/20 00:31:23;;;;;;;14.82;7.22;;;20.00;95.70;;;;;;5076732;28;20201;-76
2022/07/20 00:33:50;;;;;;;14.40;7.35;;;19.90;96.50;;;;;;5076599;28;20201;-76
2022/07/20 00:36:20;;;;;;;17.23;8.35;;;19.90;97.70;;;;;;5076496;28;20250;-76
2022/07/20 00:38:46;;;;;;;9.05;6.65;;;19.90;98.20;;;;;;5076318;28;20286;-76
2022/07/20 00:41:14;;;;;;;9.75;6.10;;;19.70;99.50;;;;;;5076423;28;20251;-76
2022/07/20 00:43:54;;;;;;;10.65;6.18;;;19.70;99.90;;;;;;5076638;28;20208;-76
2022/07/20 00:46:20;;;;;;;15.50;10.75;;;19.60;99.90;;;;;;5076507;28;20215;-76
2022/07/20 00:48:47;;;;;;;7.20;5.55;;;19.70;99.90;;;;;;5076377;28;20201;-76
2022/07/20 00:51:14;;;;;;;8.27;5.68;;;19.60;99.90;;;;;;5076310;28;20205;-76
2022/07/20 00:53:42;;;;;;;8.00;5.50;;;19.70;99.90;;;;;;5076146;28;20197;-76
2022/07/20 00:56:10;;;;;;;12.40;5.72;;;19.50;99.90;;;;;;5076112;28;20723;-76
2022/07/20 00:58:36;;;;;;;9.55;5.80;;;19.40;99.90;;;;;;5076237;28;20201;-76
2022/07/20 01:01:03;;;;;;;12.35;5.80;;;19.40;99.90;;;;;;5076204;28;20274;-76
2022/07/20 01:03:31;;;;;;;12.23;6.18;;;19.30;99.90;;;;;;5076140;28;20602;-76
2022/07/20 01:05:58;;;;;;;9.13;6.13;;;19.30;99.90;;;;;;5076024;28;20251;-76
2022/07/20 01:08:25;;;;;;;12.35;5.75;;;19.00;99.90;;;;;;5075902;28;20243;-76
2022/07/20 01:10:53;;;;;;;11.38;5.97;;;19.10;99.90;;;;;;5076044;28;20251;-76
2022/07/20 01:13:20;;;;;;;11.60;5.60;;;19.20;99.90;;;;;;5075980;28;20197;-76
2022/07/20 01:15:47;;;;;;;8.63;5.43;;;19.00;99.90;;;;;;5075724;28;20718;-75
2022/07/20 01:18:13;;;;;;;7.78;5.30;;;19.00;99.90;;;;;;5075771;28;20208;-74
2022/07/20 01:20:46;;;;;;;8.57;5.40;;;18.80;99.90;;;;;;5075660;28;20274;-75
2022/07/20 01:23:14;;;;;;;9.00;5.30;;;18.80;99.90;;;;;;5075845;28;20193;-75
2022/07/20 01:25:41;;;;;;;10.50;5.80;;;18.90;99.90;;;;;;5075750;28;20243;-75
2022/07/20 01:28:09;;;;;;;7.53;5.05;;;18.90;99.90;;;;;;5075663;28;20250;-75
2022/07/20 01:30:36;;;;;;;11.70;6.13;;;18.90;99.90;;;;;;5075379;28;20278;-74
2022/07/20 01:33:03;;;;;;;6.50;5.22;;;18.80;99.90;;;;;;5075497;28;20204;-74
2022/07/20 01:35:30;;;;;;;7.32;5.93;;;18.70;99.90;;;;;;5075264;28;20196;-76
2022/07/20 01:37:56;;;;;;;9.93;6.38;;;18.50;99.90;;;;;;5075522;28;20201;-76
2022/07/20 01:40:25;;;;;;;8.13;6.25;;;18.30;99.90;;;;;;5075231;28;20224;-76
2022/07/20 01:42:51;;;;;;;8.85;6.30;;;18.20;99.90;;;;;;5075453;28;20242;-75
2022/07/20 01:45:19;;;;;;;10.38;6.30;;;18.10;99.90;;;;;;5075343;28;20197;-75
2022/07/20 01:47:47;;;;;;;9.02;5.75;;;18.20;99.90;;;;;;5075177;28;20201;-76
2022/07/20 01:50:13;;;;;;;9.27;5.85;;;18.30;99.90;;;;;;5075308;28;20224;-75
2022/07/20 01:52:40;;;;;;;10.93;5.55;;;18.40;99.90;;;;;;5075356;28;20197;-76
2022/07/20 01:55:07;;;;;;;9.60;6.10;;;18.30;99.90;;;;;;5075524;28;20197;-76
2022/07/20 01:57:35;;;;;;;9.25;5.82;;;18.30;99.90;;;;;;5075968;28;20541;-76
2022/07/20 02:00:01;;;;;;;9.00;6.05;;;18.30;99.90;;;;;;5075245;28;20243;-76
2022/07/20 02:02:28;;;;;;;11.77;6.47;;;18.10;99.90;;;;;;5074889;28;20204;-75
2022/07/20 02:04:55;;;;;;;9.95;5.90;;;18.40;99.90;;;;;;5075080;28;20225;-76
2022/07/20 02:07:21;;;;;;;10.57;5.88;;;18.20;99.90;;;;;;5074800;28;20250;-76
2022/07/20 02:09:48;;;;;;;15.70;6.20;;;18.20;99.90;;;;;;5074778;28;20221;-75
2022/07/20 02:12:14;;;;;;;12.30;5.90;;;18.10;99.90;;;;;;5074846;28;20201;-76
2022/07/20 02:14:42;;;;;;;11.18;6.40;;;18.20;99.90;;;;;;5074668;28;20653;-76
2022/07/20 02:17:09;;;;;;;6.95;5.78;;;18.20;99.90;;;;;;5074721;28;20196;-76
2022/07/20 02:19:35;;;;;;;8.35;5.20;;;18.10;99.90;;;;;;5074917;28;20255;-75
2022/07/20 02:22:02;;;;;;;11.38;6.18;;;18.10;99.90;;;;;;5074540;28;20557;-76
2022/07/20 02:24:29;;;;;;;11.00;5.85;;;18.10;99.90;;;;;;5074567;28;20254;-76
2022/07/20 02:26:55;;;;;;;12.15;6.00;;;18.00;99.90;;;;;;5074507;28;20224;-75
2022/07/20 02:29:22;;;;;;;7.75;5.60;;;17.90;99.90;;;;;;5074409;28;20274;-76
2022/07/20 02:31:50;;;;;;;9.30;6.88;;;17.80;99.90;;;;;;5074371;28;20250;-75
2022/07/20 02:34:16;;;;;;;10.05;6.32;;;17.80;99.90;;;;;;5074452;28;20250;-76
2022/07/20 02:36:43;;;;;;;10.30;6.07;;;17.80;99.90;;;;;;5074458;28;20197;-76
2022/07/20 02:39:10;;;;;;;12.07;6.10;;;17.80;99.90;;;;;;5074200;28;20232;-76
2022/07/20 02:41:36;;;;;;;9.32;5.78;;;17.80;99.90;;;;;;5074239;28;20197;-78
2022/07/20 02:44:03;;;;;;;9.90;5.72;;;17.80;99.90;;;;;;5074114;28;20656;-75
2022/07/20 02:46:30;;;;;;;7.90;6.45;;;17.90;99.90;;;;;;5073679;28;20201;-75
2022/07/20 02:48:58;;;;;;;8.77;5.55;;;17.70;99.90;;;;;;5074170;28;20243;-76
2022/07/20 02:51:24;;;;;;;10.90;5.28;;;17.50;99.90;;;;;;5074078;28;20600;-75
2022/07/20 02:53:51;;;;;;;6.82;5.82;;;17.30;99.90;;;;;;5074146;28;20205;-76
2022/07/20 02:56:17;;;;;;;9.30;5.70;;;17.20;99.90;;;;;;5074010;28;20201;-75
2022/07/20 02:58:44;;;;;;;8.15;5.38;;;17.40;99.90;;;;;;5073806;28;20254;-74
2022/07/20 03:01:11;;;;;;;9.25;5.43;;;17.40;99.90;;;;;;5073789;28;20201;-74
2022/07/20 03:03:37;;;;;;;9.20;5.82;;;17.40;99.90;;;;;;5073841;28;20196;-75
2022/07/20 03:06:06;;;;;;;9.80;6.03;;;17.20;99.90;;;;;;5073731;28;20269;-75
2022/07/20 03:08:32;;;;;;;15.70;7.20;;;17.10;99.90;;;;;;5073566;28;20668;-75
2022/07/20 03:10:59;;;;;;;15.27;7.25;;;17.20;99.90;;;;;;5073452;28;20221;-75
2022/07/20 03:13:26;;;;;;;19.08;8.18;;;17.20;99.90;;;;;;5073780;28;20200;-76
2022/07/20 03:15:52;;;;;;;12.77;7.63;;;17.20;99.90;;;;;;5073503;28;20656;-75
2022/07/20 03:18:19;;;;;;;12.90;7.68;;;17.30;99.90;;;;;;5073566;28;20193;-75
2022/07/20 03:20:46;;;;;;;13.25;7.57;;;17.40;99.90;;;;;;5073519;28;20201;-75
2022/07/20 03:23:14;;;;;;;15.23;7.47;;;17.40;99.90;;;;;;5073416;28;20267;-75
2022/07/20 03:25:40;;;;;;;14.55;7.70;;;17.30;99.90;;;;;;5073234;28;20482;-75
2022/07/20 03:28:07;;;;;;;15.55;8.13;;;17.40;99.90;;;;;;5073504;28;20197;-75
2022/07/20 03:30:34;;;;;;;16.48;9.10;;;17.20;99.90;;;;;;5073120;28;20749;-75
2022/07/20 03:33:00;;;;;;;16.88;8.23;;;17.20;99.90;;;;;;5073301;28;20243;-75
2022/07/20 03:35:27;;;;;;;16.77;8.38;;;17.20;99.90;;;;;;5073258;28;20256;-75
2022/07/20 03:37:53;;;;;;;12.50;8.00;;;17.20;99.90;;;;;;5073096;28;20645;-75
2022/07/20 03:40:21;;;;;;;15.15;7.85;;;17.20;99.90;;;;;;5072784;28;20229;-74
2022/07/20 03:42:48;;;;;;;11.38;7.47;;;17.10;99.90;;;;;;5073276;28;20250;-75
2022/07/20 03:45:15;;;;;;;11.70;7.00;;;17.20;99.90;;;;;;5072967;28;20721;-75
2022/07/20 03:47:41;;;;;;;14.65;7.70;;;17.20;99.90;;;;;;5073160;28;20201;-75
2022/07/20 03:50:09;;;;;;;14.60;7.57;;;17.20;99.90;;;;;;5072919;28;20627;-75
2022/07/20 03:52:35;;;;;;;13.73;7.15;;;17.30;99.90;;;;;;5072894;28;20587;-75
2022/07/20 03:55:02;;;;;;;10.75;7.85;;;17.30;99.90;;;;;;5073074;28;20246;-75
2022/07/20 03:57:30;;;;;;;15.48;9.13;;;17.30;99.90;;;;;;5072791;28;20204;-75
2022/07/20 03:59:56;;;;;;;14.98;8.68;;;17.30;99.90;;;;;;5072429;28;20227;-75
2022/07/20 04:02:23;;;;;;;19.73;9.27;;;17.30;99.90;;;;;;5072847;28;20648;-75
2022/07/20 04:04:50;;;;;;;13.57;7.95;;;17.40;99.90;;;;;;5072765;28;20644;-75
2022/07/20 04:07:16;;;;;;;16.60;8.77;;;17.40;99.90;;;;;;5072802;28;20222;-75
2022/07/20 04:09:46;;;;;;;13.32;8.32;;;17.40;99.90;;;;;;5072828;28;20201;-75
2022/07/20 04:12:16;;;;;;;18.80;8.30;;;17.50;99.90;;;;;;5072746;28;20649;-75
2022/07/20 04:14:45;;;;;;;9.90;8.35;;;17.40;99.90;;;;;;5072817;28;20201;-75
2022/07/20 04:17:12;;;;;;;16.83;8.55;;;17.40;99.90;;;;;;5072757;28;20201;-75
2022/07/20 04:19:39;;;;;;;10.95;7.50;;;17.50;99.90;;;;;;5072761;28;20201;-75
2022/07/20 04:22:06;;;;;;;11.90;7.60;;;17.50;99.90;;;;;;5072609;28;20266;-75
2022/07/20 04:24:33;;;;;;;8.35;7.55;;;17.50;99.90;;;;;;5072893;28;20197;-76
2022/07/20 04:26:59;;;;;;;10.30;7.93;;;17.50;99.90;;;;;;5072670;28;20247;-76
2022/07/20 04:29:26;;;;;;;11.45;7.63;;;17.50;99.90;;;;;;5072662;28;20273;-75
2022/07/20 04:31:54;;;;;;;11.27;7.07;;;17.50;99.90;;;;;;5072546;28;20229;-75
2022/07/20 04:34:21;;;;;;;11.68;6.90;;;17.50;99.90;;;;;;5072460;28;20238;-76
2022/07/20 04:36:47;;;;;;;14.45;7.47;;;17.60;99.90;;;;;;5072767;28;20201;-76
2022/07/20 04:39:14;;;;;;;12.45;7.13;;;17.70;99.90;;;;;;5072472;28;20229;-76
2022/07/20 04:41:41;;;;;;;12.38;6.90;;;17.60;99.90;;;;;;5072755;28;20205;-76
2022/07/20 04:44:08;;;;;;;11.32;7.55;;;17.60;99.90;;;;;;5072603;28;20200;-76
2022/07/20 04:46:35;;;;;;;11.25;6.72;;;17.80;99.90;;;;;;5072500;28;20201;-75
2022/07/20 04:49:03;;;;;;;11.27;7.05;;;18.00;99.90;;;;;;5072380;28;20242;-75
2022/07/20 04:51:30;;;;;;;12.82;6.93;;;18.00;99.90;;;;;;5072398;28;20282;-76
2022/07/20 04:53:57;;;;;;;10.48;6.75;;;17.90;99.90;;;;;;5072453;28;20292;-75
2022/07/20 04:56:23;;;;;;;12.98;7.43;;;17.80;99.90;;;;;;5072399;28;20197;-76
2022/07/20 04:58:52;;;;;;;8.20;6.80;;;17.80;99.90;;;;;;5072283;28;20556;-76
2022/07/20 05:01:19;;;;;;;10.65;7.32;;;17.80;99.90;;;;;;5072153;28;20254;-75
2022/07/20 05:03:46;;;;;;;13.13;7.90;;;17.80;99.90;;;;;;5072130;28;20227;-75
2022/07/20 05:06:14;;;;;;;14.95;7.35;;;18.00;99.90;;;;;;5072374;28;20193;-75
2022/07/20 05:08:41;;;;;;;13.75;7.63;;;18.20;99.90;;;;;;5072280;28;20224;-75
2022/07/20 05:11:08;;;;;;;13.75;7.80;;;18.50;99.90;;;;;;5075231;28;20638;-75
2022/07/20 05:13:34;;;;;;;13.50;7.63;;;18.60;99.90;;;;;;5075917;28;20201;-75
2022/07/20 05:16:01;;;;;;;12.20;7.57;;;18.80;99.90;;;;;;5075776;28;20201;-75
2022/07/20 05:18:29;;;;;;;12.43;7.78;;;18.80;99.90;;;;;;5075637;28;20707;-76
2022/07/20 05:20:56;;;;;;;14.93;7.90;;;18.70;99.90;;;;;;5075542;28;20244;-75
2022/07/20 05:23:24;;;;;;;13.18;7.57;;;18.90;99.90;;;;;;5075709;28;20197;-76
2022/07/20 05:25:50;;;;;;;11.57;7.97;;;19.00;99.90;;;;;;5075414;28;20197;-75
2022/07/20 05:28:18;;;;;;;14.20;7.78;;;19.10;99.90;;;;;;5075431;28;20621;-75
2022/07/20 05:30:45;;;;;;;13.10;8.10;;;19.20;99.90;;;;;;5075368;28;20278;-75
2022/07/20 05:33:12;;;;;;;11.93;8.02;;;19.30;99.90;;;;;;5075517;28;20197;-76
2022/07/20 05:35:38;;;;;;;11.02;7.43;;;19.40;99.90;;;;;;5075646;28;20575;-77
2022/07/20 05:38:05;;;;;;;11.80;7.60;;;19.40;99.90;;;;;;5075437;28;20200;-76
2022/07/20 05:40:33;;;;;;;12.55;7.93;;;19.60;99.90;;;;;;5075223;28;20282;-76
2022/07/20 05:43:00;;;;;;;17.15;7.38;;;19.70;99.90;;;;;;5075019;28;20666;-77
2022/07/20 05:45:26;;;;;;;12.00;6.93;;;19.90;99.90;;;;;;5074094;28;20262;-77
2022/07/20 05:47:53;;;;;;;12.02;7.68;;;20.10;99.90;;;;;;5075305;28;20274;-79
2022/07/20 05:50:20;;;;;;;15.77;8.43;;;20.40;99.90;;;;;;5075153;28;20205;-78
2022/07/20 05:52:46;;;;;;;12.98;7.72;;;20.60;99.90;;;;;;5075274;28;20200;-78
2022/07/20 05:55:13;;;;;;;11.68;7.22;;;20.80;99.90;;;;;;5075149;28;20197;-77
2022/07/20 05:57:41;;;;;;;9.15;6.60;;;21.00;99.90;;;;;;5074962;28;20258;-78
2022/07/20 06:00:09;;;;;;;18.52;7.70;;;21.20;99.90;;;;;;5075278;28;20205;-77
2022/07/20 06:02:35;;;;;;;12.90;7.32;;;21.40;99.90;;;;;;5075204;28;20323;-78
2022/07/20 06:05:02;;;;;;;13.05;6.88;;;21.60;99.90;;;;;;5075027;28;20242;-78
2022/07/20 06:07:29;;;;;;;11.13;6.40;;;21.70;99.90;;;;;;5074942;28;20205;-78
2022/07/20 06:09:55;;;;;;;13.57;6.88;;;21.90;99.90;;;;;;5074835;28;20311;-78
2022/07/20 06:12:22;;;;;;;15.25;7.07;;;22.00;99.90;;;;;;5074773;28;20301;-78
2022/07/20 06:14:50;;;;;;;12.20;6.85;;;22.10;99.90;;;;;;5074799;28;20675;-78
2022/07/20 06:17:17;;;;;;;9.13;6.00;;;22.20;99.90;;;;;;5074970;28;20205;-78
2022/07/20 06:19:43;;;;;;;17.58;6.78;;;22.30;99.90;;;;;;5074870;28;20209;-78
2022/07/20 06:22:10;;;;;;;10.75;5.78;;;22.50;99.90;;;;;;5073677;28;20200;-78
2022/07/20 06:24:37;;;;;;;7.85;5.28;;;22.80;99.90;;;;;;5074560;28;20205;-78
2022/07/20 06:27:04;;;;;;;9.82;5.60;;;23.00;99.90;;;;;;5074351;28;20649;-78
2022/07/20 06:29:30;;;;;;;7.63;4.95;;;23.20;99.90;;;;;;5074591;28;20254;-78
2022/07/20 06:31:58;;;;;;;5.70;4.60;;;23.30;99.90;;;;;;5074347;28;20297;-78
2022/07/20 06:34:25;;;;;;;10.63;4.90;;;23.50;99.60;;;;;;5074333;28;20201;-78
2022/07/20 06:36:51;;;;;;;6.50;4.72;;;23.60;99.50;;;;;;5074199;28;20323;-79
2022/07/20 06:39:18;;;;;;;8.57;4.90;;;23.80;98.60;;;;;;5074027;28;20647;-78
2022/07/20 06:41:45;;;;;;;6.32;4.70;;;24.00;96.60;;;;;;5074158;28;20252;-78
2022/07/20 06:44:11;;;;;;;7.95;3.92;;;24.10;94.20;;;;;;5074348;28;20193;-78
2022/07/20 06:46:38;;;;;;;9.95;4.50;;;24.20;92.50;;;;;;5074364;28;20193;-78
2022/07/20 06:49:06;;;;;;;5.45;4.60;;;24.30;91.70;;;;;;5074519;28;20201;-78
2022/07/20 06:51:33;;;;;;;10.77;4.20;;;24.40;91.10;;;;;;5073861;28;20267;-78
2022/07/20 06:53:59;;;;;;;4.43;3.92;;;24.50;89.50;;;;;;5073936;28;20250;-78
2022/07/20 06:56:26;;;;;;;9.60;4.72;;;24.50;88.20;;;;;;5074161;28;20201;-78
2022/07/20 06:58:53;;;;;;;9.20;4.50;;;24.70;87.00;;;;;;5073721;28;20652;-78
2022/07/20 07:01:20;;;;;;;6.75;4.13;;;24.80;85.30;;;;;;5073776;28;20276;-77
2022/07/20 07:03:46;;;;;;;6.25;4.45;;;24.80;84.20;;;;;;5073812;28;20197;-77
2022/07/20 07:06:14;;;;;;;7.43;4.38;;;24.90;84.30;;;;;;5073721;28;20204;-77
2022/07/20 07:08:41;;;;;;;9.05;4.60;;;25.00;83.40;;;;;;5073547;28;20197;-77
2022/07/20 07:11:07;;;;;;;6.35;4.25;;;25.10;81.50;;;;;;5073645;28;20278;-77
2022/07/20 07:13:34;;;;;;;5.30;4.13;;;25.10;81.80;;;;;;5073534;28;20665;-77
2022/07/20 07:16:01;;;;;;;5.40;4.35;;;25.20;80.50;;;;;;5073647;28;20235;-77
2022/07/20 07:18:28;;;;;;;6.50;4.38;;;25.20;80.70;;;;;;5073611;28;20571;-77
2022/07/20 07:20:54;;;;;;;5.57;4.30;;;25.30;80.20;;;;;;5073870;28;20197;-77
2022/07/20 07:23:22;;;;;;;6.90;4.53;;;25.40;79.80;;;;;;5077146;28;20197;-77
2022/07/20 07:25:49;;;;;;;4.35;3.95;;;25.50;79.20;;;;;;5074849;28;20200;-77
2022/07/20 07:28:16;;;;;;;4.50;4.00;;;25.60;78.30;;;;;;5073801;28;20197;-77
2022/07/20 07:30:43;;;;;;;5.97;4.53;;;25.80;78.20;;;;;;5073831;28;20199;-77
2022/07/20 07:33:09;;;;;;;4.45;4.07;;;25.80;76.50;;;;;;5073289;28;20319;-77
2022/07/20 07:35:36;;;;;;;12.38;4.30;;;26.00;75.70;;;;;;5073091;28;20193;-77
2022/07/20 07:38:03;;;;;;;8.18;4.25;;;26.00;74.90;;;;;;5072980;28;20196;-77
2022/07/20 07:40:31;;;;;;;7.68;4.75;;;26.10;75.50;;;;;;5072923;28;20270;-77
2022/07/20 07:42:57;;;;;;;5.68;4.43;;;26.30;74.80;;;;;;5073194;28;20268;-77
2022/07/20 07:45:24;;;;;;;4.63;4.10;;;26.40;73.00;;;;;;5072747;28;20259;-77
2022/07/20 07:47:51;;;;;;;7.15;4.72;;;26.60;72.80;;;;;;5073017;28;20200;-77
2022/07/20 07:50:17;;;;;;;6.68;4.20;;;26.80;71.80;;;;;;5072890;28;20250;-77
2022/07/20 07:52:44;;;;;;;5.68;4.55;;;27.00;71.40;;;;;;5072736;28;20757;-77
2022/07/20 07:55:10;;;;;;;6.40;4.60;;;27.20;69.90;;;;;;5073047;28;20197;-77
2022/07/20 07:57:38;;;;;;;7.53;4.22;;;27.40;68.90;;;;;;5072846;28;20197;-78
2022/07/20 08:00:07;;;;;;;6.32;4.38;;;27.60;68.70;;;;;;5072883;28;20242;-78
2022/07/20 08:02:33;;;;;;;5.70;4.63;;;27.70;66.50;;;;;;5072815;28;20212;-77
2022/07/20 08:05:00;;;;;;;8.85;4.80;;;28.00;65.80;;;;;;5072711;28;20200;-77
2022/07/20 08:07:27;;;;;;;7.50;4.65;;;28.10;64.10;;;;;;5073126;28;20203;-77
2022/07/20 08:09:53;;;;;;;6.90;4.50;;;28.20;63.50;;;;;;5072852;28;20268;-78
2022/07/20 08:12:21;;;;;;;5.38;4.35;;;28.50;62.70;;;;;;5072837;28;20717;-77
2022/07/20 08:14:49;;;;;;;7.95;4.70;;;28.60;61.90;;;;;;5072640;28;20648;-76
2022/07/20 08:17:15;;;;;;;6.28;4.50;;;28.80;60.60;;;;;;5072611;28;20276;-79
2022/07/20 08:19:42;;;;;;;7.30;4.38;;;28.90;59.80;;;;;;5072516;28;20679;-79
2022/07/20 08:22:08;;;;;;;5.95;4.82;;;29.10;58.50;;;;;;5072931;28;20243;-77
2022/07/20 08:24:35;;;;;;;6.43;4.60;;;29.20;57.20;;;;;;5072788;28;20197;-78
2022/07/20 08:27:02;;;;;;;15.32;4.97;;;29.30;56.60;;;;;;5072783;28;20200;-77
2022/07/20 08:29:28;;;;;;;6.28;4.55;;;29.50;56.10;;;;;;5072713;28;20549;-77
2022/07/20 08:31:56;;;;;;;9.35;5.30;;;29.30;55.20;;;;;;5072442;28;20526;-77
2022/07/20 08:34:23;;;;;;;7.32;4.90;;;29.50;55.00;;;;;;5072866;28;20193;-77
2022/07/20 08:36:50;;;;;;;5.78;5.05;;;29.50;54.70;;;;;;5072700;28;20197;-77
2022/07/20 08:39:17;;;;;;;8.73;5.05;;;29.60;54.50;;;;;;5072313;28;20708;-77
2022/07/20 08:41:44;;;;;;;8.10;4.68;;;29.80;53.90;;;;;;5072427;28;20246;-77
2022/07/20 08:44:11;;;;;;;5.40;4.90;;;30.10;52.80;;;;;;5072499;28;20197;-77
2022/07/20 08:46:38;;;;;;;9.13;5.00;;;30.30;51.90;;;;;;5076493;28;20201;-78
2022/07/20 08:49:07;;;;;;;9.20;4.68;;;30.50;50.80;;;;;;5076583;28;20227;-77
2022/07/20 08:51:33;;;;;;;6.57;4.55;;;30.70;50.70;;;;;;5076784;28;20221;-77
2022/07/20 08:54:00;;;;;;;6.38;4.60;;;30.90;49.70;;;;;;5076391;28;20205;-77
2022/07/20 08:56:27;;;;;;;7.75;4.78;;;31.20;49.00;;;;;;5076311;28;20197;-77
2022/07/20 08:58:54;;;;;;;6.45;4.90;;;31.20;47.90;;;;;;5076938;28;20559;-78
2022/07/20 09:01:21;;;;;;;8.02;4.50;;;31.40;47.50;;;;;;5077307;28;20250;-78
2022/07/20 09:04:06;;;;;;;10.32;4.57;;;31.60;46.50;;;;;;5077720;28;20205;-78
2022/07/20 09:06:34;;;;;;;6.00;4.53;;;31.90;45.90;;;;;;5076399;28;20251;-78
2022/07/20 09:09:03;;;;;;;6.32;5.20;;;32.20;44.70;;;;;;5076055;28;20204;-78
2022/07/20 09:11:31;;;;;;;8.45;4.50;;;32.10;44.10;;;;;;5075811;28;20200;-77
2022/07/20 09:13:57;;;;;;;10.00;5.07;;;32.40;43.50;;;;;;5076196;28;20204;-78
2022/07/20 09:16:36;;;;;;;9.48;5.03;;;32.40;42.70;;;;;;5076031;28;20251;-77
2022/07/20 09:19:03;;;;;;;11.73;4.40;;;32.70;41.90;;;;;;5075892;28;20205;-78
2022/07/20 09:21:32;;;;;;;8.10;4.50;;;33.00;41.20;;;;;;5076216;28;20200;-78
2022/07/20 09:24:04;;;;;;;9.13;4.70;;;33.10;40.30;;;;;;5075659;28;20283;-78
2022/07/20 09:26:31;;;;;;;6.72;4.75;;;33.30;40.30;;;;;;5075856;28;20197;-78
2022/07/20 09:28:59;;;;;;;9.13;5.25;;;33.50;39.60;;;;;;5075797;28;20208;-78
2022/07/20 09:31:28;;;;;;;6.68;4.72;;;33.70;38.50;;;;;;5075531;28;20710;-78
2022/07/20 09:33:57;;;;;;;7.65;4.93;;;34.00;38.20;;;;;;5075647;28;20250;-78
2022/07/20 09:36:26;;;;;;;12.25;5.20;;;34.00;36.50;;;;;;5075354;28;20204;-78
2022/07/20 09:38:55;;;;;;;9.02;4.78;;;34.00;36.10;;;;;;5075488;28;20229;-79
2022/07/20 09:41:23;;;;;;;8.30;4.95;;;33.90;36.40;;;;;;5075692;28;20226;-77
2022/07/20 09:43:50;;;;;;;5.68;5.07;;;34.00;35.80;;;;;;5075459;28;20262;-77
2022/07/20 09:46:18;;;;;;;6.18;4.85;;;34.50;35.50;;;;;;5075469;28;20205;-78
2022/07/20 09:48:47;;;;;;;10.40;4.72;;;34.60;34.60;;;;;;5075381;28;20201;-78
2022/07/20 09:51:23;;;;;;;8.95;5.30;;;34.10;34.20;;;;;;5075248;28;20201;-78
2022/07/20 09:53:51;;;;;;;9.48;4.95;;;34.40;35.20;;;;;;5075482;28;20224;-79
2022/07/20 09:56:20;;;;;;;5.43;4.93;;;35.00;34.20;;;;;;5073946;28;20216;-78
2022/07/20 09:58:49;;;;;;;7.45;4.75;;;35.70;32.90;;;;;;5075379;28;20251;-78
2022/07/20 10:01:18;;;;;;;6.07;4.45;;;36.30;32.30;;;;;;5075111;28;20747;-78
2022/07/20 10:03:50;;;;;;;8.45;4.72;;;36.30;31.20;;;;;;5074967;28;20204;-78
2022/07/20 10:06:17;;;;;;;12.82;5.20;;;36.20;30.80;;;;;;5075301;28;20200;-78
2022/07/20 10:08:44;;;;;;;6.93;4.80;;;35.50;31.20;;;;;;5075071;28;20199;-78
2022/07/20 10:11:11;;;;;;;6.82;4.75;;;35.00;31.60;;;;;;5075050;28;20254;-78
2022/07/20 10:13:41;;;;;;;8.43;4.93;;;35.10;31.80;;;;;;5074871;28;20277;-79
2022/07/20 10:16:21;;;;;;;7.90;4.43;;;35.20;31.40;;;;;;5074872;28;20257;-78
2022/07/20 10:18:49;;;;;;;5.80;4.68;;;35.60;31.60;;;;;;5074963;28;20200;-78
2022/07/20 10:21:37;;;;;;;9.07;4.43;;;36.50;30.70;;;;;;5074826;28;20254;-79
2022/07/20 10:24:25;;;;;;;6.80;4.32;;;37.40;29.40;;;;;;5074694;28;20211;-79
2022/07/20 10:26:55;;;;;;;8.93;4.75;;;38.00;28.80;;;;;;5074885;28;20204;-78
2022/07/20 10:29:36;;;;;;;9.93;4.95;;;38.30;27.50;;;;;;5074721;28;20204;-79
2022/07/20 10:32:16;;;;;;;7.30;4.93;;;38.80;27.00;;;;;;5074700;28;20287;-78
2022/07/20 10:34:46;;;;;;;9.40;4.32;;;39.30;26.30;;;;;;5075111;28;20204;-78
2022/07/20 10:37:35;;;;;;;7.22;4.82;;;38.80;25.90;;;;;;5074537;28;20213;-77
2022/07/20 10:40:07;;;;;;;11.70;4.50;;;37.10;26.20;;;;;;5074155;28;20281;-77
2022/07/20 10:42:37;;;;;;;7.30;4.35;;;36.90;26.90;;;;;;5074170;28;20651;-78
2022/07/20 10:45:34;;;;;;;9.20;5.00;;;37.50;26.40;;;;;;5074155;28;20279;-78
2022/07/20 10:48:16;;;;;;;4.43;4.03;;;38.30;25.50;;;;;;5074453;28;20554;-78
2022/07/20 10:50:45;;;;;;;8.07;4.32;;;39.20;25.00;;;;;;5071807;28;20193;-77
2022/07/20 10:53:37;;;;;;;6.82;4.72;;;40.00;24.00;;;;;;5074076;28;20290;-79
2022/07/20 10:56:06;;;;;;;8.95;4.85;;;40.50;22.70;;;;;;5073979;28;20591;-78
2022/07/20 10:58:35;;;;;;;6.50;4.20;;;40.10;22.30;;;;;;5073701;28;20253;-78
2022/07/20 11:01:05;;;;;;;6.38;4.30;;;40.20;22.20;;;;;;5073738;28;20208;-78
2022/07/20 11:03:36;;;;;;;7.28;4.25;;;41.00;21.50;;;;;;5073820;28;20197;-79
2022/07/20 11:06:06;;;;;;;8.25;4.40;;;40.80;21.50;;;;;;5073830;28;20322;-78
2022/07/20 11:08:33;;;;;;;5.13;4.47;;;41.20;21.00;;;;;;5073578;28;20207;-78
2022/07/20 11:11:01;;;;;;;6.57;4.40;;;42.00;20.40;;;;;;5074043;28;20254;-78
2022/07/20 11:13:29;;;;;;;7.82;4.10;;;41.50;19.10;;;;;;5073899;28;20322;-78
2022/07/20 11:15:58;;;;;;;6.28;4.00;;;40.10;19.50;;;;;;5073739;28;20207;-78
2022/07/20 11:18:29;;;;;;;5.60;4.97;;;41.00;19.60;;;;;;5073598;28;20196;-77
2022/07/20 11:20:58;;;;;;;6.78;3.95;;;41.20;18.20;;;;;;5073754;28;20560;-78
2022/07/20 11:23:27;;;;;;;6.10;4.20;;;41.70;18.20;;;;;;5073869;28;20196;-79
2022/07/20 11:25:55;;;;;;;7.05;3.78;;;41.60;17.00;;;;;;5073960;28;20299;-77
2022/07/20 11:28:24;;;;;;;6.70;4.00;;;41.90;16.40;;;;;;5074975;28;20244;-78
2022/07/20 11:30:52;;;;;;;5.45;4.00;;;41.80;16.00;;;;;;5074594;28;20205;-78
2022/07/20 11:33:29;;;;;;;5.53;3.78;;;41.90;15.30;;;;;;5074486;28;20224;-77
2022/07/20 11:35:57;;;;;;;7.85;3.63;;;41.40;15.90;;;;;;5073582;28;20196;-80
2022/07/20 11:38:35;;;;;;;6.10;3.70;;;42.50;15.60;;;;;;5073197;28;20197;-77
2022/07/20 11:41:03;;;;;;;5.05;4.13;;;43.50;15.00;;;;;;5073223;28;20207;-78
2022/07/20 11:43:30;;;;;;;5.70;3.92;;;42.50;15.60;;;;;;5073060;28;20192;-78
2022/07/20 11:46:09;;;;;;;8.73;4.00;;;43.80;14.80;;;;;;5073408;28;20587;-78
2022/07/20 11:48:38;;;;;;;5.60;3.65;;;44.60;13.70;;;;;;5074960;28;20678;-78
2022/07/20 11:51:05;;;;;;;4.28;3.83;;;44.60;13.70;;;;;;5074261;28;20254;-78
2022/07/20 11:53:33;;;;;;;5.47;3.80;;;45.30;13.90;;;;;;5074254;28;20586;-77
2022/07/20 11:56:03;;;;;;;6.97;4.15;;;45.00;13.30;;;;;;5073551;28;20192;-78
2022/07/20 11:58:32;;;;;;;5.18;3.83;;;45.00;13.40;;;;;;5073832;28;20204;-78
2022/07/20 12:01:00;;;;;;;3.95;3.30;;;44.80;11.70;;;;;;5073686;28;20192;-78
2022/07/20 12:03:30;;;;;;;7.53;3.70;;;45.20;11.10;;;;;;5074866;28;20200;-79
2022/07/20 12:06:02;;;;;;;4.25;3.85;;;46.20;11.80;;;;;;5073036;28;20651;-78
2022/07/20 12:08:29;;;;;;;3.97;3.65;;;45.70;11.20;;;;;;5072964;28;20651;-78
2022/07/20 12:10:57;;;;;;;6.07;3.83;;;46.70;11.10;;;;;;5072930;28;20196;-78
2022/07/20 12:13:24;;;;;;;6.07;3.83;;;47.10;10.90;;;;;;5073001;28;20227;-77
2022/07/20 12:15:57;;;;;;;4.65;4.18;;;48.20;11.00;;;;;;5072917;28;20666;-77
2022/07/20 12:18:40;;;;;;;5.50;4.13;;;48.80;10.10;;;;;;5072984;28;20266;-78
2022/07/20 12:21:12;;;;;;;6.88;4.10;;;48.30;9.50;;;;;;5072538;28;20207;-79
2022/07/20 12:23:39;;;;;;;5.45;4.68;;;49.20;9.50;;;;;;5073289;28;20201;-79
2022/07/20 12:26:25;;;;;;;5.55;4.20;;;48.80;8.90;;;;;;5073409;28;20200;-78
2022/07/20 12:28:53;;;;;;;5.82;4.25;;;47.90;8.90;;;;;;5073176;28;20196;-78
2022/07/20 12:31:21;;;;;;;6.07;3.75;;;47.70;8.80;;;;;;5073349;28;20197;-78
2022/07/20 12:34:01;;;;;;;6.88;3.80;;;45.50;9.10;;;;;;5072878;28;20228;-79
2022/07/20 12:36:34;;;;;;;4.55;3.75;;;45.40;9.40;;;;;;5073403;28;20196;-79
2022/07/20 12:39:01;;;;;;;6.82;3.50;;;45.30;9.40;;;;;;5073065;28;20223;-79
2022/07/20 12:41:28;;;;;;;6.50;3.60;;;47.00;9.20;;;;;;5073028;28;20204;-78
2022/07/20 12:43:55;;;;;;;6.57;3.70;;;45.80;8.70;;;;;;5072719;28;20227;-80
2022/07/20 12:46:21;;;;;;;5.57;3.65;;;43.70;9.90;;;;;;5072906;28;20199;-79
2022/07/20 12:48:50;;;;;;;8.57;3.80;;;44.30;9.90;;;;;;5072711;28;20200;-78
2022/07/20 12:51:18;;;;;;;4.45;3.50;;;45.30;9.30;;;;;;5072609;28;20200;-78